sensor_id;sensor_type;location;lat;lon;timestamp;pressure;altitude;pressure_sealevel;temperature;humidity
80654;BME280;70020;45.524;10.240;2024-01-16T00:01:45;99047.53;;;7.80;61.54
80654;BME280;70020;45.524;10.240;2024-01-16T00:04:11;99054.28;;;7.70;60.73
80654;BME280;70020;45.524;10.240;2024-01-16T00:06:40;99048.44;;;7.68;62.25
80654;BME280;70020;45.524;10.240;2024-01-16T00:09:06;99051.22;;;7.65;62.66
80654;BME280;70020;45.524;10.240;2024-01-16T00:11:32;99054.34;;;7.46;62.79
80654;BME280;70020;45.524;10.240;2024-01-16T00:13:58;99051.50;;;7.38;63.78
80654;BME280;70020;45.524;10.240;2024-01-16T00:16:24;99061.03;;;7.60;62.94
80654;BME280;70020;45.524;10.240;2024-01-16T00:18:50;99048.72;;;7.52;62.98
80654;BME280;70020;45.524;10.240;2024-01-16T00:21:19;99060.03;;;7.74;62.81
80654;BME280;70020;45.524;10.240;2024-01-16T00:23:45;99067.84;;;7.61;63.36
80654;BME280;70020;45.524;10.240;2024-01-16T00:26:23;99066.16;;;7.49;65.05
80654;BME280;70020;45.524;10.240;2024-01-16T00:28:50;99069.66;;;7.48;64.36
80654;BME280;70020;45.524;10.240;2024-01-16T00:31:16;99071.00;;;7.65;63.73
80654;BME280;70020;45.524;10.240;2024-01-16T00:33:41;99064.56;;;7.70;64.00
80654;BME280;70020;45.524;10.240;2024-01-16T00:36:07;99077.09;;;7.64;64.67
80654;BME280;70020;45.524;10.240;2024-01-16T00:38:34;99070.34;;;7.85;63.39
80654;BME280;70020;45.524;10.240;2024-01-16T00:40:59;99072.44;;;7.80;64.04
80654;BME280;70020;45.524;10.240;2024-01-16T00:43:26;99083.31;;;7.83;62.96
80654;BME280;70020;45.524;10.240;2024-01-16T00:45:52;99085.44;;;7.89;62.79
80654;BME280;70020;45.524;10.240;2024-01-16T00:48:18;99090.59;;;7.89;61.78
80654;BME280;70020;45.524;10.240;2024-01-16T00:50:46;99093.53;;;7.85;61.35
80654;BME280;70020;45.524;10.240;2024-01-16T00:53:11;99104.16;;;7.80;61.62
80654;BME280;70020;45.524;10.240;2024-01-16T00:55:38;99099.22;;;7.77;63.00
80654;BME280;70020;45.524;10.240;2024-01-16T00:58:04;99097.00;;;7.84;62.10
80654;BME280;70020;45.524;10.240;2024-01-16T01:00:30;99097.44;;;7.67;63.16
80654;BME280;70020;45.524;10.240;2024-01-16T01:02:56;99100.75;;;7.80;63.35
80654;BME280;70020;45.524;10.240;2024-01-16T01:05:24;99106.75;;;7.80;62.69
80654;BME280;70020;45.524;10.240;2024-01-16T01:07:56;99100.75;;;7.80;63.21
80654;BME280;70020;45.524;10.240;2024-01-16T01:10:22;99107.06;;;7.76;63.22
80654;BME280;70020;45.524;10.240;2024-01-16T01:12:48;99101.09;;;7.64;63.56
80654;BME280;70020;45.524;10.240;2024-01-16T01:15:14;99105.28;;;7.65;62.15
80654;BME280;70020;45.524;10.240;2024-01-16T01:17:41;99117.94;;;7.68;62.70
80654;BME280;70020;45.524;10.240;2024-01-16T01:20:08;99117.09;;;7.68;62.70
80654;BME280;70020;45.524;10.240;2024-01-16T01:22:35;99119.69;;;7.68;63.23
80654;BME280;70020;45.524;10.240;2024-01-16T01:25:02;99120.50;;;7.68;62.78
80654;BME280;70020;45.524;10.240;2024-01-16T01:27:28;99130.44;;;7.62;63.21
80654;BME280;70020;45.524;10.240;2024-01-16T01:29:54;99139.78;;;7.63;63.03
80654;BME280;70020;45.524;10.240;2024-01-16T01:32:21;99147.97;;;7.57;63.39
80654;BME280;70020;45.524;10.240;2024-01-16T01:34:47;99148.78;;;7.57;62.87
80654;BME280;70020;45.524;10.240;2024-01-16T01:37:13;99149.66;;;7.69;62.18
80654;BME280;70020;45.524;10.240;2024-01-16T01:39:39;99157.13;;;7.72;62.06
80654;BME280;70020;45.524;10.240;2024-01-16T01:42:05;99157.03;;;7.73;62.11
80654;BME280;70020;45.524;10.240;2024-01-16T01:44:31;99173.41;;;7.72;62.47
80654;BME280;70020;45.524;10.240;2024-01-16T01:46:57;99171.38;;;7.65;61.46
80654;BME280;70020;45.524;10.240;2024-01-16T01:49:25;99177.84;;;7.46;59.99
80654;BME280;70020;45.524;10.240;2024-01-16T01:51:50;99172.72;;;7.46;61.84
80654;BME280;70020;45.524;10.240;2024-01-16T01:54:18;99179.28;;;7.50;60.50
80654;BME280;70020;45.524;10.240;2024-01-16T01:56:44;99183.91;;;7.45;60.36
80654;BME280;70020;45.524;10.240;2024-01-16T01:59:10;99190.09;;;7.19;60.87
80654;BME280;70020;45.524;10.240;2024-01-16T02:01:37;99192.50;;;7.10;61.53
80654;BME280;70020;45.524;10.240;2024-01-16T02:04:04;99196.88;;;7.20;60.92
80654;BME280;70020;45.524;10.240;2024-01-16T02:06:30;99200.28;;;7.21;60.79
80654;BME280;70020;45.524;10.240;2024-01-16T02:08:59;99202.63;;;6.88;61.43
80654;BME280;70020;45.524;10.240;2024-01-16T02:11:25;99207.97;;;6.84;61.60
80654;BME280;70020;45.524;10.240;2024-01-16T02:13:51;99214.13;;;6.95;62.07
80654;BME280;70020;45.524;10.240;2024-01-16T02:16:21;99207.84;;;6.99;61.97
80654;BME280;70020;45.524;10.240;2024-01-16T02:18:46;99206.81;;;7.01;61.46
80654;BME280;70020;45.524;10.240;2024-01-16T02:21:16;99205.38;;;7.10;61.33
80654;BME280;70020;45.524;10.240;2024-01-16T02:23:42;99213.88;;;7.10;61.50
80654;BME280;70020;45.524;10.240;2024-01-16T02:26:09;99215.50;;;6.62;60.44
80654;BME280;70020;45.524;10.240;2024-01-16T02:28:35;99216.53;;;6.60;63.46
80654;BME280;70020;45.524;10.240;2024-01-16T02:31:00;99223.91;;;6.77;63.05
80654;BME280;70020;45.524;10.240;2024-01-16T02:33:27;99223.78;;;6.91;62.71
80654;BME280;70020;45.524;10.240;2024-01-16T02:35:53;99229.69;;;6.93;61.54
80654;BME280;70020;45.524;10.240;2024-01-16T02:38:20;99234.19;;;6.77;63.19
80654;BME280;70020;45.524;10.240;2024-01-16T02:40:46;99235.34;;;6.85;63.18
80654;BME280;70020;45.524;10.240;2024-01-16T02:43:12;99233.66;;;6.97;62.77
80654;BME280;70020;45.524;10.240;2024-01-16T02:45:38;99234.38;;;6.99;63.05
80654;BME280;70020;45.524;10.240;2024-01-16T02:48:05;99232.97;;;6.95;63.32
80654;BME280;70020;45.524;10.240;2024-01-16T02:50:32;99236.25;;;6.97;64.28
80654;BME280;70020;45.524;10.240;2024-01-16T02:52:58;99245.31;;;6.90;62.51
80654;BME280;70020;45.524;10.240;2024-01-16T02:55:24;99246.94;;;6.91;63.48
80654;BME280;70020;45.524;10.240;2024-01-16T02:57:50;99251.59;;;6.86;63.55
80654;BME280;70020;45.524;10.240;2024-01-16T03:00:15;99254.03;;;7.00;63.81
80654;BME280;70020;45.524;10.240;2024-01-16T03:02:43;99254.53;;;7.05;62.56
80654;BME280;70020;45.524;10.240;2024-01-16T03:05:09;99260.22;;;6.98;61.56
80654;BME280;70020;45.524;10.240;2024-01-16T03:07:36;99266.16;;;7.11;61.49
80654;BME280;70020;45.524;10.240;2024-01-16T03:10:02;99271.59;;;7.06;61.95
80654;BME280;70020;45.524;10.240;2024-01-16T03:12:28;99268.84;;;7.09;59.92
80654;BME280;70020;45.524;10.240;2024-01-16T03:14:54;99278.09;;;6.86;60.30
80654;BME280;70020;45.524;10.240;2024-01-16T03:17:20;99274.31;;;6.67;63.18
80654;BME280;70020;45.524;10.240;2024-01-16T03:19:46;99278.31;;;6.83;62.06
80654;BME280;70020;45.524;10.240;2024-01-16T03:22:12;99287.66;;;6.84;62.76
80654;BME280;70020;45.524;10.240;2024-01-16T03:24:38;99289.31;;;6.85;62.10
80654;BME280;70020;45.524;10.240;2024-01-16T03:27:03;99289.72;;;6.79;61.31
80654;BME280;70020;45.524;10.240;2024-01-16T03:29:29;99293.00;;;6.69;61.37
80654;BME280;70020;45.524;10.240;2024-01-16T03:31:55;99283.75;;;6.66;62.19
80654;BME280;70020;45.524;10.240;2024-01-16T03:34:21;99280.25;;;6.67;61.65
80654;BME280;70020;45.524;10.240;2024-01-16T03:36:46;99281.28;;;6.65;62.08
80654;BME280;70020;45.524;10.240;2024-01-16T03:39:12;99291.97;;;6.59;60.84
80654;BME280;70020;45.524;10.240;2024-01-16T03:41:39;99293.63;;;6.60;61.98
80654;BME280;70020;45.524;10.240;2024-01-16T03:44:05;99295.59;;;6.69;62.46
80654;BME280;70020;45.524;10.240;2024-01-16T03:46:31;99296.09;;;6.74;62.00
80654;BME280;70020;45.524;10.240;2024-01-16T03:48:57;99295.97;;;6.63;61.74
80654;BME280;70020;45.524;10.240;2024-01-16T03:51:23;99304.53;;;6.76;62.03
80654;BME280;70020;45.524;10.240;2024-01-16T03:53:49;99294.53;;;6.59;61.63
80654;BME280;70020;45.524;10.240;2024-01-16T03:56:16;99295.06;;;6.64;61.19
80654;BME280;70020;45.524;10.240;2024-01-16T03:58:41;99298.75;;;6.47;62.84
80654;BME280;70020;45.524;10.240;2024-01-16T04:01:08;99293.59;;;6.47;61.46
80654;BME280;70020;45.524;10.240;2024-01-16T04:03:34;99301.63;;;6.43;61.30
80654;BME280;70020;45.524;10.240;2024-01-16T04:06:00;99301.50;;;6.44;62.47
80654;BME280;70020;45.524;10.240;2024-01-16T04:08:26;99300.19;;;6.51;61.95
80654;BME280;70020;45.524;10.240;2024-01-16T04:10:52;99301.72;;;6.54;61.49
80654;BME280;70020;45.524;10.240;2024-01-16T04:13:18;99308.69;;;6.39;61.82
80654;BME280;70020;45.524;10.240;2024-01-16T04:15:44;99308.59;;;6.41;61.81
80654;BME280;70020;45.524;10.240;2024-01-16T04:18:10;99305.00;;;6.56;61.80
80654;BME280;70020;45.524;10.240;2024-01-16T04:20:36;99308.94;;;6.61;61.89
80654;BME280;70020;45.524;10.240;2024-01-16T04:23:02;99319.34;;;6.60;61.67
80654;BME280;70020;45.524;10.240;2024-01-16T04:25:28;99315.09;;;6.59;61.46
80654;BME280;70020;45.524;10.240;2024-01-16T04:27:54;99315.09;;;6.59;60.78
80654;BME280;70020;45.524;10.240;2024-01-16T04:30:23;99318.28;;;6.50;60.23
80654;BME280;70020;45.524;10.240;2024-01-16T04:32:50;99314.69;;;6.52;61.14
80654;BME280;70020;45.524;10.240;2024-01-16T04:35:17;99320.75;;;6.64;60.50
80654;BME280;70020;45.524;10.240;2024-01-16T04:37:42;99319.00;;;6.77;60.48
80654;BME280;70020;45.524;10.240;2024-01-16T04:40:08;99319.00;;;6.77;60.26
80654;BME280;70020;45.524;10.240;2024-01-16T04:42:34;99324.78;;;6.80;59.89
80654;BME280;70020;45.524;10.240;2024-01-16T04:45:01;99319.34;;;6.85;59.26
80654;BME280;70020;45.524;10.240;2024-01-16T04:47:27;99322.72;;;6.98;59.16
80654;BME280;70020;45.524;10.240;2024-01-16T04:49:56;99321.63;;;7.02;57.51
80654;BME280;70020;45.524;10.240;2024-01-16T04:52:22;99318.53;;;7.10;57.50
80654;BME280;70020;45.524;10.240;2024-01-16T04:54:48;99328.19;;;7.06;58.31
80654;BME280;70020;45.524;10.240;2024-01-16T04:57:13;99341.56;;;7.11;58.03
80654;BME280;70020;45.524;10.240;2024-01-16T04:59:39;99344.03;;;7.00;58.08
80654;BME280;70020;45.524;10.240;2024-01-16T05:02:05;99349.56;;;7.19;57.34
80654;BME280;70020;45.524;10.240;2024-01-16T05:04:31;99340.81;;;7.22;57.40
80654;BME280;70020;45.524;10.240;2024-01-16T05:06:57;99348.16;;;7.03;58.97
80654;BME280;70020;45.524;10.240;2024-01-16T05:09:23;99352.47;;;7.02;58.41
80654;BME280;70020;45.524;10.240;2024-01-16T05:11:48;99361.28;;;6.98;58.42
80654;BME280;70020;45.524;10.240;2024-01-16T05:14:14;99353.28;;;6.90;58.60
80654;BME280;70020;45.524;10.240;2024-01-16T05:16:40;99355.03;;;7.02;58.27
80654;BME280;70020;45.524;10.240;2024-01-16T05:19:05;99354.53;;;6.97;58.39
80654;BME280;70020;45.524;10.240;2024-01-16T05:21:32;99365.41;;;6.75;59.20
80654;BME280;70020;45.524;10.240;2024-01-16T05:23:59;99361.59;;;6.68;59.34
80654;BME280;70020;45.524;10.240;2024-01-16T05:26:24;99372.09;;;6.78;58.64
80654;BME280;70020;45.524;10.240;2024-01-16T05:28:50;99367.56;;;6.69;59.00
80654;BME280;70020;45.524;10.240;2024-01-16T05:31:17;99363.16;;;6.83;58.02
80654;BME280;70020;45.524;10.240;2024-01-16T05:33:45;99361.31;;;6.85;58.25
80654;BME280;70020;45.524;10.240;2024-01-16T05:36:11;99360.16;;;6.90;56.93
80654;BME280;70020;45.524;10.240;2024-01-16T05:38:37;99368.88;;;6.74;58.45
80654;BME280;70020;45.524;10.240;2024-01-16T05:41:04;99383.88;;;6.55;59.38
80654;BME280;70020;45.524;10.240;2024-01-16T05:43:29;99383.88;;;6.55;59.70
80654;BME280;70020;45.524;10.240;2024-01-16T05:45:55;99389.63;;;6.59;59.09
80654;BME280;70020;45.524;10.240;2024-01-16T05:48:21;99385.13;;;6.62;58.80
80654;BME280;70020;45.524;10.240;2024-01-16T05:50:47;99396.31;;;6.61;58.99
80654;BME280;70020;45.524;10.240;2024-01-16T05:53:13;99396.19;;;6.63;58.61
80654;BME280;70020;45.524;10.240;2024-01-16T05:55:39;99396.72;;;6.55;58.48
80654;BME280;70020;45.524;10.240;2024-01-16T05:58:04;99391.13;;;6.49;58.70
80654;BME280;70020;45.524;10.240;2024-01-16T06:00:30;99399.66;;;6.49;58.72
80654;BME280;70020;45.524;10.240;2024-01-16T06:02:58;99407.53;;;6.73;57.69
80654;BME280;70020;45.524;10.240;2024-01-16T06:05:24;99410.75;;;6.76;56.81
80654;BME280;70020;45.524;10.240;2024-01-16T06:07:52;99414.75;;;6.80;57.56
80654;BME280;70020;45.524;10.240;2024-01-16T06:10:18;99417.75;;;6.87;57.45
80654;BME280;70020;45.524;10.240;2024-01-16T06:12:44;99421.44;;;6.83;57.39
80654;BME280;70020;45.524;10.240;2024-01-16T06:15:10;99426.91;;;6.91;56.60
80654;BME280;70020;45.524;10.240;2024-01-16T06:17:39;99426.06;;;6.78;57.42
80654;BME280;70020;45.524;10.240;2024-01-16T06:20:05;99421.34;;;6.84;55.10
80654;BME280;70020;45.524;10.240;2024-01-16T06:22:33;99435.84;;;6.85;55.07
80654;BME280;70020;45.524;10.240;2024-01-16T06:25:00;99441.69;;;6.75;56.67
80654;BME280;70020;45.524;10.240;2024-01-16T06:27:27;99435.44;;;6.79;56.09
80654;BME280;70020;45.524;10.240;2024-01-16T06:29:53;99449.09;;;6.79;56.87
80654;BME280;70020;45.524;10.240;2024-01-16T06:32:19;99450.66;;;6.82;56.50
80654;BME280;70020;45.524;10.240;2024-01-16T06:34:45;99441.72;;;6.88;55.36
80654;BME280;70020;45.524;10.240;2024-01-16T06:37:11;99443.81;;;6.95;55.77
80654;BME280;70020;45.524;10.240;2024-01-16T06:39:37;99447.34;;;6.80;56.67
80654;BME280;70020;45.524;10.240;2024-01-16T06:42:03;99453.75;;;6.87;56.86
80654;BME280;70020;45.524;10.240;2024-01-16T06:44:30;99445.25;;;6.99;55.60
80654;BME280;70020;45.524;10.240;2024-01-16T06:46:56;99451.47;;;6.82;57.68
80654;BME280;70020;45.524;10.240;2024-01-16T06:49:22;99453.94;;;6.84;57.05
80654;BME280;70020;45.524;10.240;2024-01-16T06:51:48;99459.25;;;6.68;57.20
80654;BME280;70020;45.524;10.240;2024-01-16T06:54:13;99462.25;;;6.75;56.96
80654;BME280;70020;45.524;10.240;2024-01-16T06:56:39;99458.34;;;6.69;56.69
80654;BME280;70020;45.524;10.240;2024-01-16T06:59:05;99463.84;;;6.90;55.73
80654;BME280;70020;45.524;10.240;2024-01-16T07:01:34;99473.72;;;6.96;54.83
80654;BME280;70020;45.524;10.240;2024-01-16T07:04:01;99478.78;;;6.98;54.45
80654;BME280;70020;45.524;10.240;2024-01-16T07:06:27;99488.66;;;6.77;54.86
80654;BME280;70020;45.524;10.240;2024-01-16T07:08:53;99483.69;;;7.01;53.73
80654;BME280;70020;45.524;10.240;2024-01-16T07:11:19;99485.38;;;7.02;53.88
80654;BME280;70020;45.524;10.240;2024-01-16T07:13:46;99481.50;;;7.21;52.97
80654;BME280;70020;45.524;10.240;2024-01-16T07:16:12;99490.75;;;7.36;49.96
80654;BME280;70020;45.524;10.240;2024-01-16T07:18:38;99494.38;;;7.46;52.48
80654;BME280;70020;45.524;10.240;2024-01-16T07:21:04;99493.38;;;7.62;50.52
80654;BME280;70020;45.524;10.240;2024-01-16T07:23:30;99492.44;;;7.63;51.34
80654;BME280;70020;45.524;10.240;2024-01-16T07:25:55;99500.34;;;7.60;50.69
80654;BME280;70020;45.524;10.240;2024-01-16T07:28:21;99506.84;;;7.78;49.87
80654;BME280;70020;45.524;10.240;2024-01-16T07:30:52;99511.19;;;7.77;50.93
80654;BME280;70020;45.524;10.240;2024-01-16T07:33:18;99516.44;;;7.76;50.22
80654;BME280;70020;45.524;10.240;2024-01-16T07:35:44;99528.19;;;7.92;49.90
80654;BME280;70020;45.524;10.240;2024-01-16T07:38:13;99535.28;;;8.01;51.30
80654;BME280;70020;45.524;10.240;2024-01-16T07:40:39;99544.03;;;7.99;52.21
80654;BME280;70020;45.524;10.240;2024-01-16T07:43:05;99546.81;;;7.96;50.71
80654;BME280;70020;45.524;10.240;2024-01-16T07:45:32;99558.75;;;8.09;51.25
80654;BME280;70020;45.524;10.240;2024-01-16T07:47:58;99546.59;;;8.11;51.27
80654;BME280;70020;45.524;10.240;2024-01-16T07:50:23;99549.47;;;8.19;51.08
80654;BME280;70020;45.524;10.240;2024-01-16T07:52:49;99551.00;;;8.22;51.69
80654;BME280;70020;45.524;10.240;2024-01-16T07:55:15;99560.00;;;8.29;51.07
80654;BME280;70020;45.524;10.240;2024-01-16T07:57:41;99554.44;;;8.35;51.13
80654;BME280;70020;45.524;10.240;2024-01-16T08:00:07;99567.22;;;8.37;51.32
80654;BME280;70020;45.524;10.240;2024-01-16T08:02:37;99567.72;;;8.42;49.47
80654;BME280;70020;45.524;10.240;2024-01-16T08:05:03;99569.03;;;8.47;48.27
80654;BME280;70020;45.524;10.240;2024-01-16T08:07:29;99567.28;;;8.48;48.03
80654;BME280;70020;45.524;10.240;2024-01-16T08:09:55;99565.34;;;8.51;47.48
80654;BME280;70020;45.524;10.240;2024-01-16T08:12:21;99564.06;;;8.57;47.13
80654;BME280;70020;45.524;10.240;2024-01-16T08:14:47;99572.63;;;8.57;48.29
80654;BME280;70020;45.524;10.240;2024-01-16T08:17:13;99580.75;;;8.64;49.60
80654;BME280;70020;45.524;10.240;2024-01-16T08:19:39;99601.28;;;8.65;50.44
80654;BME280;70020;45.524;10.240;2024-01-16T08:22:08;99601.81;;;8.70;49.48
80654;BME280;70020;45.524;10.240;2024-01-16T08:24:34;99603.09;;;8.76;49.27
80654;BME280;70020;45.524;10.240;2024-01-16T08:27:00;99607.75;;;8.71;50.23
80654;BME280;70020;45.524;10.240;2024-01-16T08:29:25;99610.16;;;8.61;51.23
80654;BME280;70020;45.524;10.240;2024-01-16T08:31:51;99619.75;;;8.59;52.13
80654;BME280;70020;45.524;10.240;2024-01-16T08:34:18;99628.25;;;8.49;52.38
80654;BME280;70020;45.524;10.240;2024-01-16T08:36:43;99641.00;;;8.50;52.15
80654;BME280;70020;45.524;10.240;2024-01-16T08:39:09;99653.06;;;8.50;52.57
80654;BME280;70020;45.524;10.240;2024-01-16T08:41:35;99654.00;;;8.49;52.81
80654;BME280;70020;45.524;10.240;2024-01-16T08:44:01;99658.34;;;8.48;53.32
80654;BME280;70020;45.524;10.240;2024-01-16T08:46:27;99651.53;;;8.47;52.80
80654;BME280;70020;45.524;10.240;2024-01-16T08:48:53;99650.81;;;8.45;52.67
80654;BME280;70020;45.524;10.240;2024-01-16T08:51:19;99649.16;;;8.44;52.65
80654;BME280;70020;45.524;10.240;2024-01-16T08:53:45;99653.69;;;8.53;52.76
80654;BME280;70020;45.524;10.240;2024-01-16T08:56:11;99653.06;;;8.50;52.38
80654;BME280;70020;45.524;10.240;2024-01-16T08:58:38;99656.06;;;8.56;52.54
80654;BME280;70020;45.524;10.240;2024-01-16T09:01:04;99649.84;;;8.71;52.75
80654;BME280;70020;45.524;10.240;2024-01-16T09:03:33;99652.16;;;8.63;52.69
80654;BME280;70020;45.524;10.240;2024-01-16T09:06:00;99641.28;;;8.71;53.61
80654;BME280;70020;45.524;10.240;2024-01-16T09:08:26;99646.25;;;8.61;53.15
80654;BME280;70020;45.524;10.240;2024-01-16T09:10:55;99643.97;;;8.57;52.30
80654;BME280;70020;45.524;10.240;2024-01-16T09:13:21;99648.53;;;8.66;52.34
80654;BME280;70020;45.524;10.240;2024-01-16T09:15:48;99650.16;;;8.79;52.30
80654;BME280;70020;45.524;10.240;2024-01-16T09:18:14;99649.75;;;8.73;52.35
80654;BME280;70020;45.524;10.240;2024-01-16T09:20:41;99650.44;;;8.87;52.21
80654;BME280;70020;45.524;10.240;2024-01-16T09:23:07;99655.25;;;8.92;52.59
80654;BME280;70020;45.524;10.240;2024-01-16T09:25:34;99667.22;;;9.06;51.92
80654;BME280;70020;45.524;10.240;2024-01-16T09:28:00;99670.31;;;9.11;51.80
80654;BME280;70020;45.524;10.240;2024-01-16T09:30:25;99675.16;;;9.15;51.95
80654;BME280;70020;45.524;10.240;2024-01-16T09:32:51;99676.03;;;9.27;51.71
80654;BME280;70020;45.524;10.240;2024-01-16T09:35:16;99674.34;;;9.38;51.39
80654;BME280;70020;45.524;10.240;2024-01-16T09:37:43;99681.75;;;9.43;50.53
80654;BME280;70020;45.524;10.240;2024-01-16T09:40:09;99682.84;;;9.51;50.74
80654;BME280;70020;45.524;10.240;2024-01-16T09:42:35;99683.84;;;9.62;51.57
80654;BME280;70020;45.524;10.240;2024-01-16T09:45:02;99680.19;;;9.64;50.29
80654;BME280;70020;45.524;10.240;2024-01-16T09:47:30;99676.94;;;9.73;49.73
80654;BME280;70020;45.524;10.240;2024-01-16T09:49:57;99673.47;;;9.85;49.84
80654;BME280;70020;45.524;10.240;2024-01-16T09:52:25;99679.13;;;9.90;50.41
80654;BME280;70020;45.524;10.240;2024-01-16T09:54:51;99678.44;;;9.99;50.33
80654;BME280;70020;45.524;10.240;2024-01-16T09:57:19;99674.25;;;10.09;49.53
80654;BME280;70020;45.524;10.240;2024-01-16T09:59:48;99669.31;;;10.06;49.43
80654;BME280;70020;45.524;10.240;2024-01-16T10:02:14;99669.03;;;10.22;49.01
80654;BME280;70020;45.524;10.240;2024-01-16T10:04:41;99678.78;;;10.18;47.99
80654;BME280;70020;45.524;10.240;2024-01-16T10:07:09;99678.66;;;10.20;48.65
80654;BME280;70020;45.524;10.240;2024-01-16T10:09:38;99682.88;;;10.21;48.25
80654;BME280;70020;45.524;10.240;2024-01-16T10:12:05;99683.72;;;10.33;49.11
80654;BME280;70020;45.524;10.240;2024-01-16T10:14:32;99679.88;;;10.38;48.53
80654;BME280;70020;45.524;10.240;2024-01-16T10:17:02;99675.28;;;10.42;48.20
80654;BME280;70020;45.524;10.240;2024-01-16T10:19:31;99667.66;;;10.51;48.15
80654;BME280;70020;45.524;10.240;2024-01-16T10:22:04;99678.94;;;10.61;46.93
80654;BME280;70020;45.524;10.240;2024-01-16T10:24:30;99678.25;;;10.59;48.27
80654;BME280;70020;45.524;10.240;2024-01-16T10:27:00;99665.06;;;10.73;47.48
80654;BME280;70020;45.524;10.240;2024-01-16T10:29:26;99674.72;;;10.82;47.08
80654;BME280;70020;45.524;10.240;2024-01-16T10:31:52;99682.13;;;10.87;47.30
80654;BME280;70020;45.524;10.240;2024-01-16T10:34:22;99679.78;;;10.95;47.25
80654;BME280;70020;45.524;10.240;2024-01-16T10:36:50;99670.84;;;10.88;46.05
80654;BME280;70020;45.524;10.240;2024-01-16T10:39:16;99676.22;;;11.07;45.65
80654;BME280;70020;45.524;10.240;2024-01-16T10:41:53;99675.38;;;11.18;45.10
80654;BME280;70020;45.524;10.240;2024-01-16T10:44:19;99676.56;;;11.14;45.47
80654;BME280;70020;45.524;10.240;2024-01-16T10:46:46;99676.53;;;11.25;45.88
80654;BME280;70020;45.524;10.240;2024-01-16T10:49:11;99675.00;;;11.22;46.02
80654;BME280;70020;45.524;10.240;2024-01-16T10:51:38;99677.59;;;11.22;45.79
80654;BME280;70020;45.524;10.240;2024-01-16T10:54:10;99679.13;;;11.25;45.51
80654;BME280;70020;45.524;10.240;2024-01-16T10:56:44;99679.44;;;11.31;44.46
80654;BME280;70020;45.524;10.240;2024-01-16T10:59:18;99674.78;;;11.25;45.34
80654;BME280;70020;45.524;10.240;2024-01-16T11:01:48;99669.22;;;11.30;44.04
80654;BME280;70020;45.524;10.240;2024-01-16T11:04:15;99674.97;;;11.33;43.69
80654;BME280;70020;45.524;10.240;2024-01-16T11:06:41;99678.53;;;11.32;43.16
80654;BME280;70020;45.524;10.240;2024-01-16T11:09:08;99685.09;;;11.36;43.04
80654;BME280;70020;45.524;10.240;2024-01-16T11:11:34;99687.13;;;11.33;43.51
80654;BME280;70020;45.524;10.240;2024-01-16T11:14:03;99691.38;;;11.23;44.77
80654;BME280;70020;45.524;10.240;2024-01-16T11:16:32;99691.69;;;11.29;44.40
80654;BME280;70020;45.524;10.240;2024-01-16T11:18:58;99696.56;;;11.23;44.63
80654;BME280;70020;45.524;10.240;2024-01-16T11:21:24;99687.59;;;11.27;44.99
80654;BME280;70020;45.524;10.240;2024-01-16T11:23:50;99695.50;;;11.25;45.05
80654;BME280;70020;45.524;10.240;2024-01-16T11:26:29;99699.00;;;11.24;44.84
80654;BME280;70020;45.524;10.240;2024-01-16T11:28:58;99698.53;;;11.19;43.72
80654;BME280;70020;45.524;10.240;2024-01-16T11:31:31;99693.03;;;11.13;44.28
80654;BME280;70020;45.524;10.240;2024-01-16T11:33:58;99681.84;;;11.12;43.90
80654;BME280;70020;45.524;10.240;2024-01-16T11:39:17;99676.44;;;11.15;43.20
80654;BME280;70020;45.524;10.240;2024-01-16T11:44:49;99676.75;;;11.22;42.93
80654;BME280;70020;45.524;10.240;2024-01-16T11:47:20;99675.25;;;11.30;43.56
80654;BME280;70020;45.524;10.240;2024-01-16T11:49:46;99682.41;;;11.27;42.85
80654;BME280;70020;45.524;10.240;2024-01-16T11:52:12;99674.31;;;11.20;43.09
80654;BME280;70020;45.524;10.240;2024-01-16T11:54:39;99672.28;;;11.35;42.67
80654;BME280;70020;45.524;10.240;2024-01-16T11:57:36;99674.63;;;11.38;42.24
80654;BME280;70020;45.524;10.240;2024-01-16T12:00:19;99666.22;;;11.45;42.21
80654;BME280;70020;45.524;10.240;2024-01-16T12:05:16;99664.97;;;11.72;42.26
80654;BME280;70020;45.524;10.240;2024-01-16T12:07:46;99670.88;;;11.74;43.08
80654;BME280;70020;45.524;10.240;2024-01-16T12:10:17;99668.72;;;11.79;42.85
80654;BME280;70020;45.524;10.240;2024-01-16T12:12:43;99660.84;;;11.80;42.85
80654;BME280;70020;45.524;10.240;2024-01-16T12:15:14;99659.94;;;11.70;42.80
80654;BME280;70020;45.524;10.240;2024-01-16T12:17:52;99651.72;;;11.86;41.58
80654;BME280;70020;45.524;10.240;2024-01-16T12:20:20;99646.44;;;12.08;40.85
80654;BME280;70020;45.524;10.240;2024-01-16T12:22:52;99643.09;;;11.96;39.92
80654;BME280;70020;45.524;10.240;2024-01-16T12:25:22;99637.97;;;12.06;40.29
80654;BME280;70020;45.524;10.240;2024-01-16T12:28:01;99639.34;;;12.10;40.55
80654;BME280;70020;45.524;10.240;2024-01-16T12:30:29;99646.94;;;12.02;40.42
80654;BME280;70020;45.524;10.240;2024-01-16T12:33:12;99645.69;;;11.96;41.00
80654;BME280;70020;45.524;10.240;2024-01-16T12:35:40;99643.53;;;12.01;40.86
80654;BME280;70020;45.524;10.240;2024-01-16T12:38:10;99641.31;;;12.17;40.82
80654;BME280;70020;45.524;10.240;2024-01-16T12:40:37;99633.53;;;12.17;40.47
80654;BME280;70020;45.524;10.240;2024-01-16T12:43:06;99635.44;;;12.15;41.90
80654;BME280;70020;45.524;10.240;2024-01-16T12:45:34;99628.72;;;12.13;40.16
80654;BME280;70020;45.524;10.240;2024-01-16T12:48:01;99628.72;;;12.13;40.31
80654;BME280;70020;45.524;10.240;2024-01-16T12:50:29;99614.44;;;12.18;40.00
80654;BME280;70020;45.524;10.240;2024-01-16T12:53:21;99612.53;;;12.00;41.74
80654;BME280;70020;45.524;10.240;2024-01-16T12:56:00;99606.84;;;12.06;41.97
80654;BME280;70020;45.524;10.240;2024-01-16T12:58:32;99607.28;;;12.11;42.76
80654;BME280;70020;45.524;10.240;2024-01-16T13:01:23;99606.31;;;12.12;41.79
80654;BME280;70020;45.524;10.240;2024-01-16T13:03:49;99612.81;;;12.27;42.10
80654;BME280;70020;45.524;10.240;2024-01-16T13:06:22;99594.28;;;12.32;41.98